createdAt,value
2017-11-29T00:00:43.658Z,1001.08
2017-11-29T00:01:43.538Z,1001.12
2017-11-29T00:02:43.673Z,1001.06
2017-11-29T00:03:43.475Z,1001.10
2017-11-29T00:04:43.586Z,1001.07
2017-11-29T00:05:43.411Z,1001.06
2017-11-29T00:06:43.496Z,1001.12
2017-11-29T00:07:43.348Z,1001.05
2017-11-29T00:08:43.405Z,1001.08
2017-11-29T00:09:43.282Z,1001.06
2017-11-29T00:10:43.422Z,1001.11
2017-11-29T00:11:43.218Z,1001.06
2017-11-29T00:12:43.332Z,1001.10
2017-11-29T00:13:43.154Z,1001.10
2017-11-29T00:14:43.256Z,1001.12
2017-11-29T00:15:43.087Z,1001.09
2017-11-29T00:16:43.156Z,1001.12
2017-11-29T00:17:43.018Z,1001.09
2017-11-29T00:18:43.166Z,1001.08
2017-11-29T00:19:42.966Z,1001.08
2017-11-29T00:20:43.082Z,1001.10
2017-11-29T00:21:42.898Z,1001.02
2017-11-29T00:22:43.004Z,1001.04
2017-11-29T00:23:42.878Z,1001.02
2017-11-29T00:24:42.903Z,1001.01
2017-11-29T00:25:42.764Z,1001.02
2017-11-29T00:26:42.916Z,1000.99
2017-11-29T00:27:42.702Z,1001.03
2017-11-29T00:28:42.829Z,1001.00
2017-11-29T00:29:42.637Z,1001.04
2017-11-29T00:30:42.737Z,1001.03
2017-11-29T00:31:42.574Z,1001.04
2017-11-29T00:32:42.649Z,1001.01
2017-11-29T00:33:42.506Z,1001.03
2017-11-29T00:34:42.661Z,1001.02
2017-11-29T00:35:42.448Z,1001.03
2017-11-29T00:36:42.582Z,1001.01
2017-11-29T00:37:42.383Z,1001.01
2017-11-29T00:38:42.487Z,1000.98
2017-11-29T00:39:42.317Z,1001.01
2017-11-29T00:40:42.398Z,1001.01
2017-11-29T00:41:42.249Z,1000.98
2017-11-29T00:42:42.411Z,1001.03
2017-11-29T00:43:42.188Z,1001.02
2017-11-29T00:44:42.324Z,1001.00
2017-11-29T00:45:42.123Z,1001.00
2017-11-29T00:46:42.235Z,1000.97
2017-11-29T00:47:42.059Z,1000.95
2017-11-29T00:48:42.148Z,1000.95
2017-11-29T00:49:41.989Z,1000.97
2017-11-29T00:50:42.176Z,1000.98
2017-11-29T00:51:41.931Z,1000.94
2017-11-29T00:52:42.071Z,1001.00
2017-11-29T00:53:41.890Z,1000.98
2017-11-29T00:54:41.984Z,1001.00
2017-11-29T00:55:41.802Z,1001.00
2017-11-29T00:56:41.897Z,1000.99
2017-11-29T00:57:41.738Z,1001.00
2017-11-29T00:58:41.911Z,1001.00
2017-11-29T00:59:41.672Z,1000.96
2017-11-29T01:00:41.821Z,1000.92
2017-11-29T01:01:41.610Z,1000.95
2017-11-29T01:02:41.732Z,1000.94
2017-11-29T01:03:41.545Z,1000.94
2017-11-29T01:04:41.644Z,1000.90
2017-11-29T01:05:41.478Z,1000.89
2017-11-29T01:06:41.655Z,1000.92
2017-11-29T01:07:41.412Z,1000.91
2017-11-29T01:08:41.566Z,1000.94
2017-11-29T01:09:41.351Z,1000.89
2017-11-29T01:10:41.481Z,1000.88
2017-11-29T01:11:41.286Z,1000.90
2017-11-29T01:12:41.389Z,1000.91
2017-11-29T01:13:41.224Z,1000.92
2017-11-29T01:14:41.406Z,1000.92
2017-11-29T01:15:41.153Z,1000.89
2017-11-29T01:16:41.316Z,1000.95
2017-11-29T01:17:41.090Z,1000.93
2017-11-29T01:18:41.126Z,1000.90
2017-11-29T01:19:41.026Z,1000.88
2017-11-29T01:20:41.033Z,1000.90
2017-11-29T01:21:40.962Z,1000.84
2017-11-29T01:22:41.053Z,1000.89
2017-11-29T01:23:40.893Z,1000.90
2017-11-29T01:24:40.966Z,1000.88
2017-11-29T01:25:40.833Z,1000.90
2017-11-29T01:26:40.973Z,1000.91
2017-11-29T01:27:40.767Z,1000.87
2017-11-29T01:28:40.785Z,1000.93
2017-11-29T01:29:40.704Z,1000.92
2017-11-29T01:30:40.805Z,1000.91
2017-11-29T01:31:40.634Z,1000.89
2017-11-29T01:32:40.735Z,1000.87
2017-11-29T01:33:40.575Z,1000.87
2017-11-29T01:34:40.620Z,1000.87
2017-11-29T01:35:40.508Z,1000.83
2017-11-29T01:36:40.536Z,1000.90
2017-11-29T01:37:40.443Z,1000.80
2017-11-29T01:38:40.443Z,1000.85
2017-11-29T01:39:40.379Z,1000.86
2017-11-29T01:40:40.456Z,1000.84
2017-11-29T01:41:40.312Z,1000.82
2017-11-29T01:42:40.371Z,1000.83
2017-11-29T01:43:40.251Z,1000.89
2017-11-29T01:44:40.283Z,1000.85
2017-11-29T01:45:40.179Z,1000.86
2017-11-29T01:46:40.194Z,1000.84
2017-11-29T01:47:40.119Z,1000.87
2017-11-29T01:48:40.206Z,1000.81
2017-11-29T01:49:40.051Z,1000.84
2017-11-29T01:50:40.114Z,1000.82
2017-11-29T01:51:39.994Z,1000.83
2017-11-29T01:52:40.029Z,1000.82
2017-11-29T01:53:39.922Z,1000.83
2017-11-29T01:54:39.976Z,1000.84
2017-11-29T01:55:39.859Z,1000.82
2017-11-29T01:56:39.962Z,1000.84
2017-11-29T01:57:39.793Z,1000.88
2017-11-29T01:58:39.901Z,1000.85
2017-11-29T01:59:39.730Z,1000.84
2017-11-29T02:00:39.774Z,1000.86
2017-11-29T02:01:39.668Z,1000.86
2017-11-29T02:02:39.687Z,1000.85
2017-11-29T02:03:39.599Z,1000.83
2017-11-29T02:04:39.701Z,1000.83
2017-11-29T02:05:39.533Z,1000.86
2017-11-29T02:06:39.614Z,1000.83
2017-11-29T02:07:39.472Z,1000.82
2017-11-29T02:08:39.523Z,1000.82
2017-11-29T02:09:39.406Z,1000.83
2017-11-29T02:10:39.434Z,1000.83
2017-11-29T02:11:39.345Z,1000.84
2017-11-29T02:12:39.453Z,1000.84
2017-11-29T02:13:39.274Z,1000.82
2017-11-29T02:14:39.365Z,1000.83
2017-11-29T02:15:39.209Z,1000.74
2017-11-29T02:16:39.274Z,1000.80
2017-11-29T02:17:39.144Z,1000.77
2017-11-29T02:18:39.180Z,1000.78
2017-11-29T02:19:39.081Z,1000.82
2017-11-29T02:20:39.200Z,1000.80
2017-11-29T02:21:39.011Z,1000.81
2017-11-29T02:22:39.112Z,1000.81
2017-11-29T02:23:38.951Z,1000.77
2017-11-29T02:24:39.025Z,1000.82
2017-11-29T02:25:38.885Z,1000.77
2017-11-29T02:26:38.934Z,1000.79
2017-11-29T02:27:38.824Z,1000.77
2017-11-29T02:28:38.948Z,1000.77
2017-11-29T02:29:38.758Z,1000.79
2017-11-29T02:30:38.864Z,1000.77
2017-11-29T02:31:38.691Z,1000.73
2017-11-29T02:32:38.775Z,1000.80
2017-11-29T02:33:38.629Z,1000.70
2017-11-29T02:34:38.685Z,1000.74
2017-11-29T02:35:38.572Z,1000.72
2017-11-29T02:36:38.712Z,1000.73
2017-11-29T02:37:38.495Z,1000.70
2017-11-29T02:38:38.610Z,1000.66
2017-11-29T02:39:38.428Z,1000.66
2017-11-29T02:40:38.515Z,1000.71
2017-11-29T02:41:38.387Z,1000.69
2017-11-29T02:42:38.431Z,1000.66
2017-11-29T02:43:38.325Z,1000.65
2017-11-29T02:44:38.535Z,1000.71
2017-11-29T02:45:38.236Z,1000.65
2017-11-29T02:46:38.358Z,1000.64
2017-11-29T02:47:38.172Z,1000.62
2017-11-29T02:48:38.267Z,1000.63
2017-11-29T02:49:38.106Z,1000.62
2017-11-29T02:50:38.178Z,1000.63
2017-11-29T02:51:38.042Z,1000.69
2017-11-29T02:52:38.200Z,1000.66
2017-11-29T02:53:37.980Z,1000.66
2017-11-29T02:54:44.656Z,1000.65
2017-11-29T02:55:37.915Z,1000.67
2017-11-29T02:56:38.017Z,1000.67
2017-11-29T02:57:37.844Z,1000.67
2017-11-29T02:58:37.926Z,1000.66
2017-11-29T02:59:37.786Z,1000.65
2017-11-29T03:00:37.838Z,1000.68
2017-11-29T03:01:37.721Z,1000.63
2017-11-29T03:02:37.851Z,1000.64
2017-11-29T03:03:37.651Z,1000.64
2017-11-29T03:04:37.763Z,1000.62
2017-11-29T03:05:37.582Z,1000.62
2017-11-29T03:06:37.675Z,1000.61
2017-11-29T03:07:37.525Z,1000.60
2017-11-29T03:08:37.585Z,1000.61
2017-11-29T03:09:37.456Z,1000.60
2017-11-29T03:10:37.598Z,1000.58
2017-11-29T03:11:37.389Z,1000.58
2017-11-29T03:12:37.510Z,1000.54
2017-11-29T03:13:37.326Z,1000.55
2017-11-29T03:14:37.422Z,1000.60
2017-11-29T03:15:37.265Z,1000.57
2017-11-29T03:16:37.335Z,1000.58
2017-11-29T03:17:37.197Z,1000.59
2017-11-29T03:18:37.346Z,1000.58
2017-11-29T03:19:37.135Z,1000.57
2017-11-29T03:20:37.254Z,1000.62
2017-11-29T03:21:37.070Z,1000.59
2017-11-29T03:22:37.171Z,1000.56
2017-11-29T03:23:37.002Z,1000.60
2017-11-29T03:24:37.079Z,1000.54
2017-11-29T03:25:36.939Z,1000.61
2017-11-29T03:26:37.092Z,1000.57
2017-11-29T03:27:36.875Z,1000.55
2017-11-29T03:28:36.912Z,1000.53
2017-11-29T03:29:36.816Z,1000.53
2017-11-29T03:30:36.915Z,1000.55
2017-11-29T03:31:36.744Z,1000.54
2017-11-29T03:32:36.833Z,1000.57
2017-11-29T03:33:36.676Z,1000.51
2017-11-29T03:34:36.846Z,1000.56
2017-11-29T03:35:36.615Z,1000.58
2017-11-29T03:36:36.760Z,1000.55
2017-11-29T03:37:36.554Z,1000.54
2017-11-29T03:38:36.672Z,1000.59
2017-11-29T03:39:36.489Z,1000.58
2017-11-29T03:40:36.578Z,1000.56
2017-11-29T03:41:36.423Z,1000.57
2017-11-29T03:42:36.598Z,1000.57
2017-11-29T03:43:36.357Z,1000.55
2017-11-29T03:44:36.498Z,1000.58
2017-11-29T03:45:36.293Z,1000.53
2017-11-29T03:46:36.420Z,1000.54
2017-11-29T03:47:36.224Z,1000.50
2017-11-29T03:48:36.329Z,1000.52
2017-11-29T03:49:36.164Z,1000.51
2017-11-29T03:50:36.240Z,1000.50
2017-11-29T03:51:36.096Z,1000.51
2017-11-29T03:52:36.150Z,1000.49
2017-11-29T03:53:36.038Z,1000.52
2017-11-29T03:54:36.058Z,1000.46
2017-11-29T03:55:35.971Z,1000.47
2017-11-29T03:56:35.972Z,1000.49
2017-11-29T03:57:35.902Z,1000.48
2017-11-29T03:58:35.986Z,1000.48
2017-11-29T03:59:35.856Z,1000.44
2017-11-29T04:00:35.902Z,1000.48
2017-11-29T04:01:35.769Z,1000.49
2017-11-29T04:02:35.811Z,1000.48
2017-11-29T04:03:35.713Z,1000.52
2017-11-29T04:04:35.720Z,1000.52
2017-11-29T04:05:35.648Z,1000.50
2017-11-29T04:06:35.733Z,1000.48
2017-11-29T04:07:35.580Z,1000.50
2017-11-29T04:08:35.645Z,1000.53
2017-11-29T04:09:35.516Z,1000.51
2017-11-29T04:10:35.557Z,1000.52
2017-11-29T04:11:35.451Z,1000.52
2017-11-29T04:12:35.468Z,1000.56
2017-11-29T04:13:35.396Z,1000.53
2017-11-29T04:14:35.480Z,1000.60
2017-11-29T04:15:35.319Z,1000.62
2017-11-29T04:16:35.393Z,1000.56
2017-11-29T04:17:35.259Z,1000.57
2017-11-29T04:18:35.303Z,1000.61
2017-11-29T04:19:35.197Z,1000.57
2017-11-29T04:20:35.214Z,1000.59
2017-11-29T04:21:35.128Z,1000.62
2017-11-29T04:22:35.227Z,1000.54
2017-11-29T04:23:35.068Z,1000.55
2017-11-29T04:24:35.139Z,1000.58
2017-11-29T04:25:34.997Z,1000.55
2017-11-29T04:26:35.050Z,1000.54
2017-11-29T04:27:34.935Z,1000.53
2017-11-29T04:28:34.962Z,1000.50
2017-11-29T04:29:34.869Z,1000.54
2017-11-29T04:30:34.976Z,1000.54
2017-11-29T04:31:34.809Z,1000.54
2017-11-29T04:32:34.891Z,1000.51
2017-11-29T04:33:34.745Z,1000.53
2017-11-29T04:34:34.804Z,1000.49
2017-11-29T04:35:34.676Z,1000.50
2017-11-29T04:36:34.709Z,1000.50
2017-11-29T04:37:34.612Z,1000.47
2017-11-29T04:38:34.723Z,1000.48
2017-11-29T04:39:34.552Z,1000.50
2017-11-29T04:40:34.633Z,1000.50
2017-11-29T04:41:34.483Z,1000.51
2017-11-29T04:42:34.545Z,1000.49
2017-11-29T04:43:34.418Z,1000.53
2017-11-29T04:44:34.464Z,1000.53
2017-11-29T04:45:34.357Z,1000.49
2017-11-29T04:46:34.479Z,1000.46
2017-11-29T04:47:34.287Z,1000.48
2017-11-29T04:48:34.382Z,1000.43
2017-11-29T04:49:34.222Z,1000.48
2017-11-29T04:50:34.296Z,1000.43
2017-11-29T04:51:34.158Z,1000.45
2017-11-29T04:52:34.204Z,1000.47
2017-11-29T04:53:34.095Z,1000.47
2017-11-29T04:54:34.218Z,1000.49
2017-11-29T04:55:34.042Z,1000.48
2017-11-29T04:56:34.130Z,1000.45
2017-11-29T04:57:33.969Z,1000.48
2017-11-29T04:58:34.041Z,1000.46
2017-11-29T04:59:33.897Z,1000.49
2017-11-29T05:00:33.962Z,1000.47
2017-11-29T05:01:33.833Z,1000.48
2017-11-29T05:02:33.864Z,1000.44
2017-11-29T05:03:33.766Z,1000.46
2017-11-29T05:04:33.884Z,1000.46
2017-11-29T05:05:33.701Z,1000.43
2017-11-29T05:06:33.794Z,1000.46
2017-11-29T05:07:33.638Z,1000.46
2017-11-29T05:08:33.703Z,1000.44
2017-11-29T05:09:33.582Z,1000.46
2017-11-29T05:10:33.617Z,1000.43
2017-11-29T05:11:33.509Z,1000.45
2017-11-29T05:12:33.630Z,1000.43
2017-11-29T05:13:33.439Z,1000.46
2017-11-29T05:14:33.540Z,1000.45
2017-11-29T05:15:33.379Z,1000.44
2017-11-29T05:16:33.455Z,1000.44
2017-11-29T05:17:33.311Z,1000.44
2017-11-29T05:18:33.364Z,1000.43
2017-11-29T05:19:33.249Z,1000.44
2017-11-29T05:20:33.377Z,1000.46
2017-11-29T05:21:33.182Z,1000.49
2017-11-29T05:22:33.291Z,1000.45
2017-11-29T05:23:33.116Z,1000.48
2017-11-29T05:24:33.201Z,1000.45
2017-11-29T05:25:33.051Z,1000.46
2017-11-29T05:26:33.113Z,1000.44
2017-11-29T05:27:32.992Z,1000.46
2017-11-29T05:28:33.125Z,1000.50
2017-11-29T05:29:32.919Z,1000.44
2017-11-29T05:30:33.038Z,1000.41
2017-11-29T05:31:32.858Z,1000.46
2017-11-29T05:32:32.947Z,1000.48
2017-11-29T05:33:32.789Z,1000.46
2017-11-29T05:34:32.859Z,1000.47
2017-11-29T05:35:32.727Z,1000.47
2017-11-29T05:36:32.874Z,1000.46
2017-11-29T05:37:32.661Z,1000.48
2017-11-29T05:38:32.784Z,1000.49
2017-11-29T05:39:32.627Z,1000.46
2017-11-29T05:40:32.694Z,1000.46
2017-11-29T05:41:32.529Z,1000.47
2017-11-29T05:42:32.606Z,1000.43
2017-11-29T05:43:32.462Z,1000.47
2017-11-29T05:44:32.621Z,1000.47
2017-11-29T05:45:32.398Z,1000.43
2017-11-29T05:46:32.531Z,1000.45
2017-11-29T05:47:32.332Z,1000.43
2017-11-29T05:48:32.445Z,1000.44
2017-11-29T05:49:32.275Z,1000.42
2017-11-29T05:50:32.351Z,1000.43
2017-11-29T05:51:32.203Z,1000.42
2017-11-29T05:52:32.369Z,1000.46
2017-11-29T05:53:32.132Z,1000.48
2017-11-29T05:54:32.280Z,1000.45
2017-11-29T05:55:32.067Z,1000.44
2017-11-29T05:56:32.190Z,1000.47
2017-11-29T05:57:32.005Z,1000.48
2017-11-29T05:58:32.100Z,1000.47
2017-11-29T05:59:31.938Z,1000.46
2017-11-29T06:00:32.013Z,1000.47
2017-11-29T06:01:31.875Z,1000.52
2017-11-29T06:02:32.029Z,1000.51
2017-11-29T06:03:31.807Z,1000.48
2017-11-29T06:04:31.939Z,1000.57
2017-11-29T06:05:31.742Z,1000.52
2017-11-29T06:06:31.852Z,1000.53
2017-11-29T06:07:31.677Z,1000.60
2017-11-29T06:08:31.760Z,1000.55
2017-11-29T06:09:31.613Z,1000.54
2017-11-29T06:10:31.778Z,1000.58
2017-11-29T06:11:31.546Z,1000.57
2017-11-29T06:12:31.687Z,1000.55
2017-11-29T06:13:31.487Z,1000.57
2017-11-29T06:14:31.597Z,1000.54
2017-11-29T06:15:31.424Z,1000.60
2017-11-29T06:16:31.509Z,1000.57
2017-11-29T06:17:31.350Z,1000.58
2017-11-29T06:18:31.527Z,1000.56
2017-11-29T06:19:31.281Z,1000.58
2017-11-29T06:20:31.457Z,1000.57
2017-11-29T06:21:31.215Z,1000.55
2017-11-29T06:22:31.243Z,1000.59
2017-11-29T06:23:31.153Z,1000.58
2017-11-29T06:24:31.159Z,1000.52
2017-11-29T06:25:31.087Z,1000.51
2017-11-29T06:26:31.168Z,1000.55
2017-11-29T06:27:31.022Z,1000.59
2017-11-29T06:28:31.082Z,1000.56
2017-11-29T06:29:30.961Z,1000.57
2017-11-29T06:30:30.991Z,1000.59
2017-11-29T06:31:30.891Z,1000.61
2017-11-29T06:32:30.903Z,1000.57
2017-11-29T06:33:30.827Z,1000.59
2017-11-29T06:34:30.819Z,1000.57
2017-11-29T06:35:30.758Z,1000.62
2017-11-29T06:36:30.826Z,1000.56
2017-11-29T06:37:30.692Z,1000.61
2017-11-29T06:38:30.742Z,1000.64
2017-11-29T06:39:30.623Z,1000.60
2017-11-29T06:40:30.655Z,1000.62
2017-11-29T06:41:30.563Z,1000.56
2017-11-29T06:42:30.570Z,1000.59
2017-11-29T06:43:30.496Z,1000.57
2017-11-29T06:44:30.579Z,1000.57
2017-11-29T06:45:30.427Z,1000.60
2017-11-29T06:46:30.490Z,1000.57
2017-11-29T06:47:30.358Z,1000.62
2017-11-29T06:48:30.415Z,1000.60
2017-11-29T06:49:30.292Z,1000.61
2017-11-29T06:50:30.314Z,1000.53
2017-11-29T06:51:30.228Z,1000.52
2017-11-29T06:52:30.334Z,1000.58
2017-11-29T06:53:30.163Z,1000.60
2017-11-29T06:54:30.245Z,1000.65
2017-11-29T06:55:30.097Z,1000.62
2017-11-29T06:56:30.156Z,1000.65
2017-11-29T06:57:30.039Z,1000.63
2017-11-29T06:58:30.065Z,1000.67
2017-11-29T06:59:29.965Z,1000.68
2017-11-29T07:00:30.079Z,1000.69
2017-11-29T07:01:29.897Z,1000.69
2017-11-29T07:02:29.996Z,1000.75
2017-11-29T07:03:29.838Z,1000.74
2017-11-29T07:04:29.907Z,1000.75
2017-11-29T07:05:29.769Z,1000.79
2017-11-29T07:06:29.822Z,1000.81
2017-11-29T07:07:29.695Z,1000.78
2017-11-29T07:08:29.724Z,1000.76
2017-11-29T07:09:29.632Z,1000.80
2017-11-29T07:10:29.743Z,1000.84
2017-11-29T07:11:29.563Z,1000.81
2017-11-29T07:12:29.650Z,1000.85
2017-11-29T07:13:29.501Z,1000.85
2017-11-29T07:14:29.561Z,1000.86
2017-11-29T07:15:29.433Z,1000.93
2017-11-29T07:16:29.471Z,1000.88
2017-11-29T07:17:29.362Z,1000.90
2017-11-29T07:18:29.486Z,1000.90
2017-11-29T07:19:29.307Z,1000.97
2017-11-29T07:20:29.397Z,1000.95
2017-11-29T07:21:29.233Z,1000.98
2017-11-29T07:22:29.316Z,1000.97
2017-11-29T07:23:29.166Z,1000.98
2017-11-29T07:24:29.222Z,1001.04
2017-11-29T07:25:29.101Z,1001.02
2017-11-29T07:26:29.137Z,1001.07
2017-11-29T07:27:29.037Z,1001.06
2017-11-29T07:28:29.151Z,1001.07
2017-11-29T07:29:28.973Z,1001.07
2017-11-29T07:30:29.059Z,1001.11
2017-11-29T07:31:28.902Z,1001.04
2017-11-29T07:32:28.972Z,1001.09
2017-11-29T07:33:28.837Z,1001.09
2017-11-29T07:34:28.883Z,1001.11
2017-11-29T07:35:28.766Z,1001.14
2017-11-29T07:36:28.894Z,1001.14
2017-11-29T07:37:28.704Z,1001.13
2017-11-29T07:38:28.809Z,1001.18
2017-11-29T07:39:28.635Z,1001.19
2017-11-29T07:40:28.715Z,1001.18
2017-11-29T07:41:28.569Z,1001.20
2017-11-29T07:42:28.632Z,1001.18
2017-11-29T07:43:28.501Z,1001.22
2017-11-29T07:44:28.644Z,1001.21
2017-11-29T07:45:28.435Z,1001.21
2017-11-29T07:46:28.558Z,1001.17
2017-11-29T07:47:28.367Z,1001.18
2017-11-29T07:48:28.467Z,1001.22
2017-11-29T07:49:28.299Z,1001.24
2017-11-29T07:50:28.373Z,1001.26
2017-11-29T07:51:28.236Z,1001.24
2017-11-29T07:52:28.283Z,1001.27
2017-11-29T07:53:28.167Z,1001.21
2017-11-29T07:54:28.298Z,1001.26
2017-11-29T07:55:28.104Z,1001.24
2017-11-29T07:56:28.208Z,1001.25
2017-11-29T07:57:28.033Z,1001.27
2017-11-29T07:58:28.121Z,1001.31
2017-11-29T07:59:27.970Z,1001.27
2017-11-29T08:00:28.039Z,1001.26
2017-11-29T08:01:27.904Z,1001.30
2017-11-29T08:02:28.048Z,1001.31
2017-11-29T08:03:27.834Z,1001.29
2017-11-29T08:04:27.958Z,1001.30
2017-11-29T08:05:27.770Z,1001.29
2017-11-29T08:06:27.869Z,1001.32
2017-11-29T08:07:27.700Z,1001.34
2017-11-29T08:08:27.779Z,1001.34
2017-11-29T08:09:27.640Z,1001.32
2017-11-29T08:10:27.799Z,1001.35
2017-11-29T08:11:27.575Z,1001.36
2017-11-29T08:12:27.706Z,1001.33
2017-11-29T08:13:27.503Z,1001.36
2017-11-29T08:14:27.619Z,1001.33
2017-11-29T08:15:27.444Z,1001.31
2017-11-29T08:16:27.529Z,1001.34
2017-11-29T08:17:27.375Z,1001.32
2017-11-29T08:18:27.451Z,1001.37
2017-11-29T08:19:27.305Z,1001.36
2017-11-29T08:20:27.454Z,1001.37
2017-11-29T08:21:27.249Z,1001.35
2017-11-29T08:22:27.266Z,1001.36
2017-11-29T08:23:27.271Z,1001.40
2017-11-29T08:24:27.143Z,1001.42
2017-11-29T08:25:27.180Z,1001.35
2017-11-29T08:26:27.076Z,1001.36
2017-11-29T08:27:27.092Z,1001.38
2017-11-29T08:28:27.097Z,1001.32
2017-11-29T08:29:26.976Z,1001.35
2017-11-29T08:30:27.007Z,1001.35
2017-11-29T08:31:26.911Z,1001.36
2017-11-29T08:32:26.922Z,1001.32
2017-11-29T08:33:26.848Z,1001.37
2017-11-29T08:34:26.833Z,1001.38
2017-11-29T08:35:26.778Z,1001.40
2017-11-29T08:36:26.849Z,1001.34
2017-11-29T08:37:26.713Z,1001.34
2017-11-29T08:38:26.756Z,1001.31
2017-11-29T08:39:26.649Z,1001.36
2017-11-29T08:40:26.671Z,1001.39
2017-11-29T08:41:26.583Z,1001.39
2017-11-29T08:42:26.584Z,1001.40
2017-11-29T08:43:26.519Z,1001.32
2017-11-29T08:44:26.595Z,1001.32
2017-11-29T08:45:26.455Z,1001.30
2017-11-29T08:46:26.508Z,1001.31
2017-11-29T08:47:26.385Z,1001.36
2017-11-29T08:48:26.417Z,1001.34
2017-11-29T08:49:26.320Z,1001.37
2017-11-29T08:50:26.329Z,1001.40
2017-11-29T08:51:26.251Z,1001.35
2017-11-29T08:52:26.241Z,1001.38
2017-11-29T08:53:26.182Z,1001.37
2017-11-29T08:54:26.255Z,1001.36
2017-11-29T08:55:26.132Z,1001.38
2017-11-29T08:56:26.164Z,1001.42
2017-11-29T08:57:26.056Z,1001.40
2017-11-29T08:58:26.077Z,1001.35
2017-11-29T08:59:25.988Z,1001.39
2017-11-29T09:00:25.993Z,1001.46
2017-11-29T09:01:25.925Z,1001.42
2017-11-29T09:02:26.001Z,1001.46
2017-11-29T09:03:25.855Z,1001.47
2017-11-29T09:04:25.917Z,1001.46
2017-11-29T09:05:25.786Z,1001.49
2017-11-29T09:06:25.823Z,1001.45
2017-11-29T09:07:25.730Z,1001.54
2017-11-29T09:08:25.738Z,1001.50
2017-11-29T09:09:25.659Z,1001.47
2017-11-29T09:10:25.649Z,1001.55
2017-11-29T09:11:25.616Z,1001.53
2017-11-29T09:12:25.661Z,1001.51
2017-11-29T09:13:25.528Z,1001.53
2017-11-29T09:14:25.571Z,1001.57
2017-11-29T09:15:25.479Z,1001.61
2017-11-29T09:16:25.493Z,1001.51
2017-11-29T09:17:25.397Z,1001.52
2017-11-29T09:18:25.396Z,1001.55
2017-11-29T09:19:25.334Z,1001.55
2017-11-29T09:20:25.408Z,1001.57
2017-11-29T09:21:25.267Z,1001.56
2017-11-29T09:22:25.324Z,1001.59
2017-11-29T09:23:25.206Z,1001.61
2017-11-29T09:24:25.234Z,1001.62
2017-11-29T09:25:25.140Z,1001.64
2017-11-29T09:26:25.145Z,1001.64
2017-11-29T09:27:25.072Z,1001.63
2017-11-29T09:28:25.055Z,1001.60
2017-11-29T09:29:25.006Z,1001.64
2017-11-29T09:30:25.101Z,1001.60
2017-11-29T09:31:24.942Z,1001.62
2017-11-29T09:32:24.986Z,1001.61
2017-11-29T09:33:24.874Z,1001.64
2017-11-29T09:34:24.891Z,1001.70
2017-11-29T09:35:24.811Z,1001.73
2017-11-29T09:36:24.824Z,1001.99
2017-11-29T09:37:24.748Z,1001.92
2017-11-29T09:38:24.816Z,1002.05
2017-11-29T09:39:24.682Z,1002.16
2017-11-29T09:40:24.727Z,1002.33
2017-11-29T09:41:24.645Z,1001.95
2017-11-29T09:42:24.638Z,1001.90
2017-11-29T09:43:24.561Z,1001.97
2017-11-29T09:44:24.553Z,1002.11
2017-11-29T09:45:24.498Z,1002.36
2017-11-29T09:46:24.569Z,1002.11
2017-11-29T09:47:24.442Z,1002.10
2017-11-29T09:48:24.479Z,1002.02
2017-11-29T09:49:24.385Z,1002.02
2017-11-29T09:50:24.391Z,1001.97
2017-11-29T09:51:24.329Z,1001.91
2017-11-29T09:52:24.404Z,1001.94
2017-11-29T09:53:24.267Z,1001.80
2017-11-29T09:54:24.312Z,1001.81
2017-11-29T09:55:24.217Z,1001.78
2017-11-29T09:56:24.226Z,1001.82
2017-11-29T09:57:24.160Z,1001.84
2017-11-29T09:58:24.241Z,1001.87
2017-11-29T09:59:24.098Z,1001.81
2017-11-29T10:00:24.152Z,1001.77
2017-11-29T10:01:24.049Z,1001.79
2017-11-29T10:02:24.062Z,1001.78
2017-11-29T10:03:23.988Z,1001.72
2017-11-29T10:04:23.979Z,1001.77
2017-11-29T10:05:23.933Z,1001.72
2017-11-29T10:06:23.988Z,1001.72
2017-11-29T10:07:23.872Z,1001.73
2017-11-29T10:08:23.899Z,1001.74
2017-11-29T10:09:23.812Z,1001.73
2017-11-29T10:10:23.811Z,1001.72
2017-11-29T10:11:23.756Z,1001.70
2017-11-29T10:12:23.821Z,1001.70
2017-11-29T10:13:23.694Z,1001.80
2017-11-29T10:14:23.664Z,1001.74
2017-11-29T10:15:23.676Z,1001.71
2017-11-29T10:16:23.647Z,1001.70
2017-11-29T10:17:23.571Z,1001.71
2017-11-29T10:18:23.661Z,1001.72
2017-11-29T10:19:23.513Z,1001.74
2017-11-29T10:20:24.254Z,1001.78
2017-11-29T10:21:23.476Z,1001.73
2017-11-29T10:22:23.421Z,1001.72
2017-11-29T10:23:23.489Z,1001.70
2017-11-29T10:24:23.361Z,1001.65
2017-11-29T10:25:23.509Z,1001.67
2017-11-29T10:26:23.302Z,1001.63
2017-11-29T10:27:23.314Z,1001.69
2017-11-29T10:28:23.240Z,1001.67
2017-11-29T10:29:23.225Z,1001.99
2017-11-29T10:30:23.178Z,1001.80
2017-11-29T10:31:23.237Z,1001.80
2017-11-29T10:32:23.120Z,1002.19
2017-11-29T10:33:23.091Z,1001.89
2017-11-29T10:34:23.156Z,1002.14
2017-11-29T10:35:23.030Z,1001.91
2017-11-29T10:36:23.067Z,1002.45
2017-11-29T10:37:22.970Z,1001.97
2017-11-29T10:38:22.977Z,1002.07
2017-11-29T10:39:22.914Z,1002.58
2017-11-29T10:40:23.015Z,1002.51
2017-11-29T10:41:22.852Z,1002.05
2017-11-29T10:42:22.902Z,1001.93
2017-11-29T10:43:22.801Z,1002.55
2017-11-29T10:44:22.823Z,1001.98
2017-11-29T10:45:22.754Z,1002.44
2017-11-29T10:46:22.829Z,1002.50
2017-11-29T10:47:22.700Z,1001.96
2017-11-29T10:48:22.739Z,1002.39
2017-11-29T10:49:22.644Z,1002.45
2017-11-29T10:50:22.655Z,1002.56
2017-11-29T10:51:22.603Z,1002.68
2017-11-29T10:52:22.668Z,1002.67
2017-11-29T10:53:22.546Z,1002.06
2017-11-29T10:54:22.580Z,1002.61
2017-11-29T10:55:22.500Z,1001.98
2017-11-29T10:56:22.489Z,1002.23
2017-11-29T10:57:22.456Z,1002.51
2017-11-29T10:58:22.503Z,1002.61
2017-11-29T10:59:22.409Z,1002.28
2017-11-29T11:00:22.412Z,1002.66
2017-11-29T11:01:22.366Z,1002.72
2017-11-29T11:02:22.427Z,1002.61
2017-11-29T11:03:22.323Z,1001.97
2017-11-29T11:04:22.342Z,1001.80
2017-11-29T11:05:22.282Z,1001.78
2017-11-29T11:06:22.355Z,1001.68
2017-11-29T11:07:22.280Z,1001.71
2017-11-29T11:08:22.270Z,1001.70
2017-11-29T11:09:22.197Z,1001.69
2017-11-29T11:10:22.281Z,1001.62
2017-11-29T11:11:22.158Z,1001.65
2017-11-29T11:12:22.193Z,1001.63
2017-11-29T11:13:22.118Z,1001.66
2017-11-29T11:14:22.200Z,1001.65
2017-11-29T11:15:22.069Z,1001.63
2017-11-29T11:16:22.124Z,1001.63
2017-11-29T11:17:22.021Z,1001.73
2017-11-29T11:18:22.027Z,1001.63
2017-11-29T11:19:21.973Z,1001.62
2017-11-29T11:20:22.037Z,1001.66
2017-11-29T11:21:21.942Z,1001.62
2017-11-29T11:22:21.949Z,1001.62
2017-11-29T11:23:21.883Z,1001.63
2017-11-29T11:24:21.972Z,1001.57
2017-11-29T11:25:21.829Z,1001.53
2017-11-29T11:26:21.878Z,1001.58
2017-11-29T11:27:21.781Z,1001.59
2017-11-29T11:28:21.792Z,1001.60
2017-11-29T11:29:21.731Z,1001.57
2017-11-29T11:30:21.801Z,1001.57
2017-11-29T11:31:21.681Z,1001.55
2017-11-29T11:32:21.714Z,1001.56
2017-11-29T11:33:21.625Z,1001.51
2017-11-29T11:34:21.621Z,1001.54
2017-11-29T11:35:21.577Z,1001.51
2017-11-29T11:36:21.642Z,1001.49
2017-11-29T11:37:21.524Z,1001.50
2017-11-29T11:38:21.550Z,1001.48
2017-11-29T11:39:21.465Z,1001.46
2017-11-29T11:40:21.461Z,1001.48
2017-11-29T11:41:21.416Z,1001.48
2017-11-29T11:42:21.476Z,1001.46
2017-11-29T11:43:21.356Z,1001.45
2017-11-29T11:44:21.419Z,1001.46
2017-11-29T11:45:21.312Z,1001.47
2017-11-29T11:46:21.327Z,1001.44
2017-11-29T11:47:21.250Z,1001.46
2017-11-29T11:48:21.316Z,1001.42
2017-11-29T11:49:21.197Z,1001.38
2017-11-29T11:50:21.233Z,1001.40
2017-11-29T11:51:21.138Z,1001.42
2017-11-29T11:52:21.135Z,1001.39
2017-11-29T11:53:21.087Z,1001.40
2017-11-29T11:54:21.145Z,1001.32
2017-11-29T11:55:21.034Z,1001.34
2017-11-29T11:56:21.060Z,1001.33
2017-11-29T11:57:20.970Z,1001.30
2017-11-29T11:58:20.972Z,1001.29
2017-11-29T11:59:20.913Z,1001.27
2017-11-29T12:00:20.986Z,1001.26
2017-11-29T12:01:20.860Z,1001.28
2017-11-29T12:02:20.898Z,1001.27
2017-11-29T12:03:20.798Z,1001.23
2017-11-29T12:04:20.807Z,1001.30
2017-11-29T12:05:20.746Z,1001.29